createdAt,value
2023-05-09T00:03:43.163Z,11.73
2023-05-09T00:08:45.822Z,18.15
2023-05-09T00:13:50.873Z,14.57
2023-05-09T00:18:53.683Z,13.63
2023-05-09T00:23:57.298Z,21.35
2023-05-09T00:28:59.948Z,13.85
2023-05-09T00:34:02.589Z,15.60
2023-05-09T00:39:05.654Z,15.63
2023-05-09T00:44:08.874Z,17.20
2023-05-09T00:49:12.607Z,18.30
2023-05-09T00:54:16.514Z,14.25
2023-05-09T00:59:19.449Z,17.33
2023-05-09T01:04:22.357Z,14.60
2023-05-09T01:09:50.827Z,19.75
2023-05-09T01:15:15.488Z,12.63
2023-05-09T01:20:35.916Z,15.27
2023-05-09T01:25:53.485Z,16.08
2023-05-09T01:30:57.660Z,13.93
2023-05-09T01:36:05.417Z,16.33
2023-05-09T01:41:11.718Z,16.67
2023-05-09T01:46:18.248Z,16.08
2023-05-09T01:51:21.981Z,16.33
2023-05-09T01:56:26.172Z,16.30
2023-05-09T02:01:30.467Z,14.20
2023-05-09T02:06:33.866Z,17.67
2023-05-09T02:11:36.696Z,17.67
2023-05-09T02:16:40.222Z,11.57
2023-05-09T02:21:43.435Z,18.50
2023-05-09T02:26:46.972Z,16.77
2023-05-09T02:31:51.719Z,13.35
2023-05-09T02:36:55.502Z,15.65
2023-05-09T02:42:06.198Z,12.30
2023-05-09T02:47:08.885Z,15.68
2023-05-09T02:52:12.028Z,13.68
2023-05-09T02:57:14.916Z,12.60
2023-05-09T03:02:17.920Z,15.85
2023-05-09T03:07:21.280Z,15.40
2023-05-09T03:12:24.145Z,19.52
2023-05-09T03:17:29.431Z,13.40
2023-05-09T03:22:32.208Z,17.10
2023-05-09T03:27:38.418Z,15.90
2023-05-09T03:32:44.456Z,14.65
2023-05-09T03:37:47.232Z,18.25
2023-05-09T03:42:50.029Z,22.30
2023-05-09T03:47:53.051Z,16.95
2023-05-09T03:52:57.121Z,14.98
2023-05-09T03:57:59.923Z,18.95
2023-05-09T04:03:02.779Z,21.65
2023-05-09T04:08:11.583Z,16.80
2023-05-09T04:13:14.414Z,16.50
2023-05-09T04:18:17.780Z,17.75
2023-05-09T04:23:21.153Z,13.27
2023-05-09T04:28:24.191Z,15.00
2023-05-09T04:33:29.245Z,13.25
2023-05-09T04:38:36.396Z,12.35
2023-05-09T04:43:43.505Z,13.00
2023-05-09T04:48:46.479Z,11.40
2023-05-09T04:53:49.132Z,11.52
2023-05-09T04:58:54.800Z,10.57
2023-05-09T05:03:57.589Z,8.93
2023-05-09T05:09:00.620Z,7.68
2023-05-09T05:14:03.809Z,9.05
2023-05-09T05:19:06.800Z,9.95
2023-05-09T05:24:13.576Z,7.85
2023-05-09T05:29:16.475Z,5.93
2023-05-09T05:34:21.064Z,8.85
2023-05-09T05:39:24.252Z,9.02
2023-05-09T05:44:28.357Z,6.43
2023-05-09T05:49:31.163Z,4.55
2023-05-09T05:54:34.294Z,6.15
2023-05-09T05:59:37.089Z,5.32
2023-05-09T06:04:40.026Z,4.65
2023-05-09T06:09:42.784Z,8.10
2023-05-09T06:14:45.803Z,2.97
2023-05-09T06:19:49.468Z,3.53
2023-05-09T06:24:52.211Z,4.40
2023-05-09T06:29:54.890Z,2.25
2023-05-09T06:34:57.525Z,2.03
2023-05-09T06:40:00.290Z,1.25
2023-05-09T06:45:03.137Z,2.45
2023-05-09T06:50:08.021Z,4.10
2023-05-09T06:55:10.860Z,1.88
2023-05-09T07:00:14.315Z,4.65
2023-05-09T07:05:17.486Z,1.63
2023-05-09T07:10:20.288Z,3.72
2023-05-09T07:15:36.809Z,5.65
2023-05-09T07:20:43.809Z,2.05
2023-05-09T07:25:46.543Z,3.35
2023-05-09T07:30:49.280Z,1.85
2023-05-09T07:35:53.218Z,2.28
2023-05-09T07:40:55.892Z,7.28
2023-05-09T07:45:58.613Z,2.95
2023-05-09T07:51:02.348Z,5.68
2023-05-09T07:56:06.899Z,5.43
2023-05-09T08:01:09.612Z,3.35
2023-05-09T08:06:12.937Z,5.70
2023-05-09T08:11:15.692Z,2.00
2023-05-09T08:16:18.445Z,5.68
2023-05-09T08:21:23.978Z,3.55
2023-05-09T08:26:27.384Z,4.63
2023-05-09T08:31:30.707Z,4.57
2023-05-09T08:36:34.004Z,2.38
2023-05-09T08:41:38.945Z,3.85
2023-05-09T08:46:44.695Z,4.55
2023-05-09T08:51:48.792Z,3.35
2023-05-09T08:56:51.890Z,3.38
2023-05-09T09:01:55.136Z,7.15
2023-05-09T09:06:58.578Z,9.25
2023-05-09T09:12:02.136Z,3.40
2023-05-09T09:17:06.826Z,6.03
2023-05-09T09:22:13.949Z,3.47
2023-05-09T09:27:17.098Z,2.78
2023-05-09T09:32:20.109Z,1.75
2023-05-09T09:37:23.532Z,6.82
2023-05-09T09:42:26.257Z,4.38
2023-05-09T09:47:32.877Z,2.58
2023-05-09T09:52:35.649Z,4.15
2023-05-09T09:57:40.000Z,2.13
2023-05-09T10:02:54.336Z,2.92
2023-05-09T10:08:02.197Z,3.83
2023-05-09T10:13:09.602Z,2.78
2023-05-09T10:18:14.984Z,5.88
2023-05-09T10:23:18.766Z,6.93
2023-05-09T10:28:28.112Z,3.05
2023-05-09T10:33:50.618Z,3.38
2023-05-09T10:38:54.822Z,6.05
2023-05-09T10:43:58.709Z,7.13
2023-05-09T10:49:01.862Z,2.47
2023-05-09T10:54:13.872Z,3.35
2023-05-09T10:59:41.342Z,5.32
2023-05-09T11:04:44.951Z,4.68
2023-05-09T11:10:10.587Z,4.10
2023-05-09T11:15:13.385Z,4.22
2023-05-09T11:20:16.671Z,2.83
2023-05-09T11:25:28.569Z,4.30
2023-05-09T11:30:42.778Z,33.22
2023-05-09T11:35:45.589Z,4.85
2023-05-09T11:40:52.280Z,2.83
2023-05-09T11:45:55.186Z,2.55
2023-05-09T11:50:57.898Z,3.50
2023-05-09T11:56:05.130Z,3.60
2023-05-09T12:01:09.521Z,4.65
2023-05-09T12:06:18.407Z,4.55
2023-05-09T12:11:21.478Z,2.55
2023-05-09T12:16:24.121Z,3.53
2023-05-09T12:21:28.388Z,5.88
2023-05-09T12:26:31.170Z,3.90
2023-05-09T12:31:34.084Z,3.50
2023-05-09T12:36:37.292Z,4.60
2023-05-09T12:42:00.589Z,2.58
2023-05-09T12:47:05.144Z,9.25
2023-05-09T12:52:19.272Z,5.63
2023-05-09T12:57:23.790Z,5.72
2023-05-09T13:02:30.648Z,3.67
2023-05-09T13:07:50.437Z,3.75
2023-05-09T13:12:53.731Z,5.55
2023-05-09T13:17:56.499Z,3.45
2023-05-09T13:22:59.295Z,4.50
2023-05-09T13:28:02.045Z,2.35
2023-05-09T13:33:16.584Z,3.20
2023-05-09T13:43:29.792Z,2.28
2023-05-09T13:48:32.825Z,7.95
2023-05-09T13:53:38.064Z,8.10
2023-05-09T13:58:41.565Z,7.30
2023-05-09T14:03:44.805Z,6.07
2023-05-09T14:08:47.405Z,5.38
2023-05-09T14:13:50.076Z,4.55
2023-05-09T14:18:52.673Z,5.90
2023-05-09T14:23:55.377Z,7.32
2023-05-09T14:28:58.024Z,5.28
2023-05-09T14:34:01.356Z,2.92
2023-05-09T14:39:04.307Z,8.57
2023-05-09T14:44:07.007Z,5.65
2023-05-09T14:49:11.492Z,4.60
2023-05-09T14:54:15.791Z,5.85
2023-05-09T14:59:18.526Z,6.57
2023-05-09T15:04:21.224Z,8.25
2023-05-09T15:09:23.992Z,7.20
2023-05-09T15:14:26.733Z,8.13
2023-05-09T15:19:31.749Z,4.82
2023-05-09T15:24:34.908Z,6.35
2023-05-09T15:29:37.837Z,7.32
2023-05-09T15:34:40.470Z,12.70
2023-05-09T15:39:43.609Z,11.60
2023-05-09T15:44:49.400Z,8.77
2023-05-09T15:49:52.228Z,25.85
2023-05-09T15:54:56.307Z,12.98
2023-05-09T15:59:58.961Z,12.32
2023-05-09T16:05:01.894Z,31.30
2023-05-09T16:10:07.304Z,33.85
2023-05-09T16:15:10.407Z,23.10
2023-05-09T16:20:14.428Z,26.45
2023-05-09T16:25:17.661Z,27.45
2023-05-09T16:30:20.330Z,27.48
2023-05-09T16:35:23.983Z,46.90
2023-05-09T16:40:26.603Z,28.27
2023-05-09T16:45:29.277Z,32.80
2023-05-09T16:50:31.927Z,35.53
2023-05-09T16:55:34.636Z,41.80
2023-05-09T17:00:37.733Z,45.20
2023-05-09T17:05:40.612Z,31.60
2023-05-09T17:10:43.218Z,47.30
2023-05-09T17:15:45.949Z,52.45
2023-05-09T17:20:49.026Z,24.83
2023-05-09T17:25:51.977Z,56.78
2023-05-09T17:30:54.628Z,51.05
2023-05-09T17:35:57.677Z,46.58
2023-05-09T17:41:00.580Z,62.20
2023-05-09T17:46:03.931Z,39.28
2023-05-09T17:51:07.149Z,55.35
2023-05-09T17:56:09.732Z,52.10
2023-05-09T18:01:13.590Z,56.20
2023-05-09T18:06:16.693Z,68.53
2023-05-09T18:11:19.332Z,46.42
2023-05-09T18:16:22.090Z,28.38
2023-05-09T18:21:25.018Z,64.57
2023-05-09T18:26:27.679Z,68.63
2023-05-09T18:31:31.541Z,50.50
2023-05-09T18:36:34.417Z,45.90
2023-05-09T18:41:37.155Z,40.17
2023-05-09T18:46:39.802Z,40.63
2023-05-09T18:51:42.586Z,34.50
2023-05-09T18:56:46.046Z,47.75
2023-05-09T19:01:48.624Z,32.10
2023-05-09T19:06:51.741Z,26.67
2023-05-09T19:11:54.611Z,25.83
2023-05-09T19:16:57.326Z,19.55
2023-05-09T19:22:01.688Z,19.23
2023-05-09T19:27:05.327Z,42.28
2023-05-09T19:32:08.397Z,10.15
2023-05-09T19:37:11.684Z,12.60
2023-05-09T19:42:15.047Z,8.32
2023-05-09T19:47:18.707Z,12.38
2023-05-09T19:52:23.414Z,8.98
2023-05-09T19:57:26.105Z,125.85
2023-05-09T20:02:29.421Z,20.33
2023-05-09T20:07:32.311Z,14.02
2023-05-09T20:12:35.069Z,19.75
2023-05-09T20:17:37.760Z,12.20
2023-05-09T20:22:40.503Z,16.33
2023-05-09T20:27:43.138Z,11.05
2023-05-09T20:32:46.158Z,15.65
2023-05-09T20:37:49.287Z,33.53
2023-05-09T20:42:52.825Z,21.15
2023-05-09T20:47:55.589Z,15.23
2023-05-09T20:52:58.273Z,17.85
2023-05-09T20:58:01.094Z,21.08
2023-05-09T21:03:04.074Z,23.15
2023-05-09T21:08:06.872Z,28.30
2023-05-09T21:13:09.645Z,20.40
2023-05-09T21:18:12.414Z,23.58
2023-05-09T21:23:15.221Z,15.13
2023-05-09T21:28:17.814Z,21.00
2023-05-09T21:33:21.350Z,27.15
2023-05-09T21:38:24.338Z,23.75
2023-05-09T21:43:28.666Z,20.45
2023-05-09T21:48:31.574Z,23.15
2023-05-09T21:53:34.331Z,22.30
2023-05-09T21:58:36.991Z,16.00
2023-05-09T22:03:39.897Z,28.20
2023-05-09T22:08:42.579Z,27.55
2023-05-09T22:13:45.147Z,26.98
2023-05-09T22:18:47.850Z,20.75
2023-05-09T22:23:50.545Z,24.00
2023-05-09T22:28:53.304Z,22.05
2023-05-09T22:33:56.041Z,18.23
2023-05-09T22:38:58.665Z,21.98
2023-05-09T22:44:01.535Z,22.52
2023-05-09T22:49:04.271Z,16.00
2023-05-09T22:54:07.007Z,15.63
2023-05-09T22:59:09.702Z,16.00
2023-05-09T23:04:12.609Z,16.48
2023-05-09T23:09:15.403Z,20.55
2023-05-09T23:14:18.155Z,22.95
2023-05-09T23:19:20.927Z,20.27
2023-05-09T23:24:48.111Z,14.77
2023-05-09T23:29:50.833Z,17.95
2023-05-09T23:34:53.662Z,15.02
2023-05-09T23:39:56.427Z,22.60
2023-05-09T23:44:59.907Z,15.00
2023-05-09T23:50:02.675Z,15.35
2023-05-09T23:55:07.349Z,13.95
